Time;durP1;ratioP1;P1;durP2;ratioP2;P2;SDS_P1;SDS_P2;PMS_P1;PMS_P2;Temp;Humidity;BMP_temperature;BMP_pressure;BME280_temperature;BME280_humidity;BME280_pressure;Samples;Min_cycle;Max_cycle;Signal;HPM_P1;HPM_P2
2021/04/04 00:00:24;;;;;;;6.4;3.65;;;;;;;1;53.80469;95691.97;;;;
2021/04/04 00:01:26;;;;;;;6.4;3.65;;;;;;;1;53.80469;95691.97;;;;
2021/04/04 00:02:26;;;;;;;6.4;3.65;;;;;;;1;53.80469;95691.97;;;;
2021/04/04 00:03:27;;;;;;;6.4;3.65;;;;;;;1;53.80469;95691.97;;;;
2021/04/04 00:04:27;;;;;;;6.4;3.65;;;;;;;1;53.80469;95691.97;;;;
2021/04/04 00:05:28;;;;;;;6.4;3.65;;;;;;;1;53.80469;95691.97;;;;
2021/04/04 00:06:28;;;;;;;6.4;3.65;;;;;;;1;53.80469;95691.97;;;;
2021/04/04 00:07:29;;;;;;;6.2;3.7;;;;;;;0.8;54.02148;95677.29;;;;
2021/04/04 00:08:29;;;;;;;6.2;3.7;;;;;;;0.8;54.02148;95677.29;;;;
2021/04/04 00:09:30;;;;;;;6.2;3.7;;;;;;;0.8;54.02148;95677.29;;;;
2021/04/04 00:10:30;;;;;;;6.2;3.7;;;;;;;0.8;54.02148;95677.29;;;;
2021/04/04 00:11:31;;;;;;;6.2;3.7;;;;;;;0.8;54.02148;95677.29;;;;
2021/04/04 00:12:32;;;;;;;6.2;3.7;;;;;;;0.8;54.02148;95677.29;;;;
2021/04/04 00:13:33;;;;;;;6.2;3.7;;;;;;;0.8;54.02148;95677.29;;;;
2021/04/04 00:14:34;;;;;;;6.2;3.7;;;;;;;0.8;54.02148;95677.29;;;;
2021/04/04 00:15:36;;;;;;;6.2;3.7;;;;;;;0.8;54.02148;95677.29;;;;
2021/04/04 00:16:36;;;;;;;6.2;3.7;;;;;;;0.8;54.02148;95677.29;;;;
2021/04/04 00:17:37;;;;;;;6.2;3.7;;;;;;;0.8;54.02148;95677.29;;;;
2021/04/04 00:18:40;;;;;;;6.249999;3.8;;;;;;;0.6;54.23828;95675.55;;;;
2021/04/04 00:19:41;;;;;;;6.249999;3.8;;;;;;;0.6;54.23828;95675.55;;;;
2021/04/04 00:20:42;;;;;;;6.249999;3.8;;;;;;;0.6;54.23828;95675.55;;;;
2021/04/04 00:21:42;;;;;;;6.249999;3.8;;;;;;;0.6;54.23828;95675.55;;;;
2021/04/04 00:22:43;;;;;;;6.249999;3.8;;;;;;;0.6;54.23828;95675.55;;;;
2021/04/04 00:23:44;;;;;;;6.249999;3.8;;;;;;;0.6;54.23828;95675.55;;;;
2021/04/04 00:24:45;;;;;;;6.249999;3.8;;;;;;;0.6;54.23828;95675.55;;;;
2021/04/04 00:25:46;;;;;;;6.249999;3.8;;;;;;;0.6;54.23828;95675.55;;;;
2021/04/04 00:26:47;;;;;;;6.249999;3.8;;;;;;;0.6;54.23828;95675.55;;;;
2021/04/04 00:27:47;;;;;;;6.249999;3.8;;;;;;;0.6;54.23828;95675.55;;;;
2021/04/04 00:28:47;;;;;;;5.3;3.45;;;;;;;0.42;54.31055;95665.99;;;;
2021/04/04 00:29:48;;;;;;;5.3;3.45;;;;;;;0.42;54.31055;95665.99;;;;
2021/04/04 00:30:48;;;;;;;5.3;3.45;;;;;;;0.42;54.31055;95665.99;;;;
2021/04/04 00:31:49;;;;;;;5.3;3.45;;;;;;;0.42;54.31055;95665.99;;;;
2021/04/04 00:32:50;;;;;;;5.3;3.45;;;;;;;0.42;54.31055;95665.99;;;;
2021/04/04 00:33:50;;;;;;;5.3;3.45;;;;;;;0.42;54.31055;95665.99;;;;
2021/04/04 00:34:51;;;;;;;5.3;3.45;;;;;;;0.42;54.31055;95665.99;;;;
2021/04/04 00:35:52;;;;;;;5.3;3.45;;;;;;;0.42;54.31055;95665.99;;;;
2021/04/04 00:36:52;;;;;;;5.3;3.45;;;;;;;0.42;54.31055;95665.99;;;;
2021/04/04 00:37:53;;;;;;;5.3;3.45;;;;;;;0.42;54.31055;95665.99;;;;
2021/04/04 00:38:54;;;;;;;5.3;3.45;;;;;;;0.42;54.31055;95665.99;;;;
2021/04/04 00:39:54;;;;;;;5.749999;3.65;;;;;;;0.14;54.68359;95669.03;;;;
2021/04/04 00:40:55;;;;;;;5.749999;3.65;;;;;;;0.14;54.68359;95669.03;;;;
2021/04/04 00:41:55;;;;;;;5.749999;3.65;;;;;;;0.14;54.68359;95669.03;;;;
2021/04/04 00:42:56;;;;;;;5.749999;3.65;;;;;;;0.14;54.68359;95669.03;;;;
2021/04/04 00:43:57;;;;;;;5.749999;3.65;;;;;;;0.14;54.68359;95669.03;;;;
2021/04/04 00:44:57;;;;;;;5.749999;3.65;;;;;;;0.14;54.68359;95669.03;;;;
2021/04/04 00:45:57;;;;;;;5.749999;3.65;;;;;;;0.14;54.68359;95669.03;;;;
2021/04/04 00:46:58;;;;;;;5.749999;3.65;;;;;;;0.14;54.68359;95669.03;;;;
2021/04/04 00:47:59;;;;;;;5.749999;3.65;;;;;;;0.14;54.68359;95669.03;;;;
2021/04/04 00:48:59;;;;;;;5.749999;3.65;;;;;;;0.14;54.68359;95669.03;;;;
2021/04/04 00:50:00;;;;;;;7.649999;3.95;;;;;;;-0.07;54.87598;95663.33;;;;
2021/04/04 00:51:01;;;;;;;7.649999;3.95;;;;;;;-0.07;54.87598;95663.33;;;;
2021/04/04 00:52:01;;;;;;;7.649999;3.95;;;;;;;-0.07;54.87598;95663.33;;;;
2021/04/04 00:53:02;;;;;;;7.649999;3.95;;;;;;;-0.07;54.87598;95663.33;;;;
2021/04/04 00:54:04;;;;;;;7.649999;3.95;;;;;;;-0.07;54.87598;95663.33;;;;
2021/04/04 00:55:05;;;;;;;7.649999;3.95;;;;;;;-0.07;54.87598;95663.33;;;;
2021/04/04 00:56:08;;;;;;;7.649999;3.95;;;;;;;-0.07;54.87598;95663.33;;;;
2021/04/04 00:57:09;;;;;;;7.649999;3.95;;;;;;;-0.07;54.87598;95663.33;;;;
2021/04/04 00:58:10;;;;;;;7.649999;3.95;;;;;;;-0.07;54.87598;95663.33;;;;
2021/04/04 00:59:11;;;;;;;7.649999;3.95;;;;;;;-0.07;54.87598;95663.33;;;;
2021/04/04 01:00:12;;;;;;;7.649999;3.95;;;;;;;-0.07;54.87598;95663.33;;;;
2021/04/04 01:01:15;;;;;;;5.799999;3.8;;;;;;;-0.17;54.90625;95662.65;;;;
2021/04/04 01:02:16;;;;;;;5.799999;3.8;;;;;;;-0.17;54.90625;95662.65;;;;
2021/04/04 01:03:17;;;;;;;5.799999;3.8;;;;;;;-0.17;54.90625;95662.65;;;;
2021/04/04 01:04:18;;;;;;;5.799999;3.8;;;;;;;-0.17;54.90625;95662.65;;;;
2021/04/04 01:05:23;;;;;;;5.799999;3.8;;;;;;;-0.17;54.90625;95662.65;;;;
2021/04/04 01:06:26;;;;;;;5.799999;3.8;;;;;;;-0.17;54.90625;95662.65;;;;
2021/04/04 01:07:27;;;;;;;5.799999;3.8;;;;;;;-0.17;54.90625;95662.65;;;;
2021/04/04 01:08:27;;;;;;;5.799999;3.8;;;;;;;-0.17;54.90625;95662.65;;;;
2021/04/04 01:09:28;;;;;;;5.799999;3.8;;;;;;;-0.17;54.90625;95662.65;;;;
2021/04/04 01:10:29;;;;;;;5.799999;3.8;;;;;;;-0.17;54.90625;95662.65;;;;
2021/04/04 01:11:32;;;;;;;7.699999;4.05;;;;;;;-0.3;55.04688;95659.61;;;;
2021/04/04 01:12:41;;;;;;;7.699999;4.05;;;;;;;-0.3;55.04688;95659.61;;;;
2021/04/04 01:13:50;;;;;;;7.699999;4.05;;;;;;;-0.3;55.04688;95659.61;;;;
2021/04/04 01:14:55;;;;;;;7.699999;4.05;;;;;;;-0.3;55.04688;95659.61;;;;
2021/04/04 01:16:03;;;;;;;7.699999;4.05;;;;;;;-0.3;55.04688;95659.61;;;;
2021/04/04 01:17:08;;;;;;;7.699999;4.05;;;;;;;-0.3;55.04688;95659.61;;;;
2021/04/04 01:18:11;;;;;;;7.699999;4.05;;;;;;;-0.3;55.04688;95659.61;;;;
2021/04/04 01:19:18;;;;;;;7.699999;4.05;;;;;;;-0.3;55.04688;95659.61;;;;
2021/04/04 01:20:33;;;;;;;7.699999;4.05;;;;;;;-0.3;55.04688;95659.61;;;;
2021/04/04 01:21:42;;;;;;;7.699999;4.05;;;;;;;-0.3;55.04688;95659.61;;;;
2021/04/04 01:22:49;;;;;;;8.9;4.2;;;;;;;-0.43;55.14453;95656.99;;;;
2021/04/04 01:24:06;;;;;;;8.9;4.2;;;;;;;-0.43;55.14453;95656.99;;;;
2021/04/04 01:25:16;;;;;;;8.9;4.2;;;;;;;-0.43;55.14453;95656.99;;;;
2021/04/04 01:26:21;;;;;;;8.9;4.2;;;;;;;-0.43;55.14453;95656.99;;;;
2021/04/04 01:27:34;;;;;;;8.9;4.2;;;;;;;-0.43;55.14453;95656.99;;;;
2021/04/04 01:28:42;;;;;;;8.9;4.2;;;;;;;-0.43;55.14453;95656.99;;;;
2021/04/04 01:29:44;;;;;;;8.9;4.2;;;;;;;-0.43;55.14453;95656.99;;;;
2021/04/04 01:30:46;;;;;;;8.9;4.2;;;;;;;-0.43;55.14453;95656.99;;;;
2021/04/04 01:31:51;;;;;;;8.9;4.2;;;;;;;-0.43;55.14453;95656.99;;;;
2021/04/04 01:32:53;;;;;;;6.299999;3.85;;;;;;;-0.52;55.35352;95651.73;;;;
2021/04/04 01:33:54;;;;;;;6.299999;3.85;;;;;;;-0.52;55.35352;95651.73;;;;
2021/04/04 01:34:56;;;;;;;6.299999;3.85;;;;;;;-0.52;55.35352;95651.73;;;;
2021/04/04 01:35:57;;;;;;;6.299999;3.85;;;;;;;-0.52;55.35352;95651.73;;;;
2021/04/04 01:36:59;;;;;;;6.299999;3.85;;;;;;;-0.52;55.35352;95651.73;;;;
2021/04/04 01:38:11;;;;;;;6.299999;3.85;;;;;;;-0.52;55.35352;95651.73;;;;
2021/04/04 01:39:14;;;;;;;6.299999;3.85;;;;;;;-0.52;55.35352;95651.73;;;;
2021/04/04 01:40:17;;;;;;;6.299999;3.85;;;;;;;-0.52;55.35352;95651.73;;;;
2021/04/04 01:41:20;;;;;;;6.299999;3.85;;;;;;;-0.52;55.35352;95651.73;;;;
2021/04/04 01:42:25;;;;;;;6.299999;3.85;;;;;;;-0.52;55.35352;95651.73;;;;
2021/04/04 01:43:27;;;;;;;5.950001;3.55;;;;;;;-0.61;55.45801;95650.04;;;;
2021/04/04 01:44:28;;;;;;;5.950001;3.55;;;;;;;-0.61;55.45801;95650.04;;;;
2021/04/04 01:45:30;;;;;;;5.950001;3.55;;;;;;;-0.61;55.45801;95650.04;;;;
2021/04/04 01:46:31;;;;;;;5.950001;3.55;;;;;;;-0.61;55.45801;95650.04;;;;
2021/04/04 01:47:33;;;;;;;5.950001;3.55;;;;;;;-0.61;55.45801;95650.04;;;;
2021/04/04 01:48:36;;;;;;;5.950001;3.55;;;;;;;-0.61;55.45801;95650.04;;;;
2021/04/04 01:49:37;;;;;;;5.950001;3.55;;;;;;;-0.61;55.45801;95650.04;;;;
2021/04/04 01:50:40;;;;;;;5.950001;3.55;;;;;;;-0.61;55.45801;95650.04;;;;
2021/04/04 01:51:42;;;;;;;5.950001;3.55;;;;;;;-0.61;55.45801;95650.04;;;;
2021/04/04 01:52:44;;;;;;;5.950001;3.55;;;;;;;-0.61;55.45801;95650.04;;;;
2021/04/04 01:53:47;;;;;;;7.3;3.65;;;;;;;-0.7;55.57031;95651.09;;;;
2021/04/04 01:54:49;;;;;;;7.3;3.65;;;;;;;-0.7;55.57031;95651.09;;;;
2021/04/04 01:55:50;;;;;;;7.3;3.65;;;;;;;-0.7;55.57031;95651.09;;;;
2021/04/04 01:56:51;;;;;;;7.3;3.65;;;;;;;-0.7;55.57031;95651.09;;;;
2021/04/04 01:57:54;;;;;;;7.3;3.65;;;;;;;-0.7;55.57031;95651.09;;;;
2021/04/04 01:58:55;;;;;;;7.3;3.65;;;;;;;-0.7;55.57031;95651.09;;;;
2021/04/04 01:59:58;;;;;;;7.3;3.65;;;;;;;-0.7;55.57031;95651.09;;;;
2021/04/04 02:01:00;;;;;;;7.3;3.65;;;;;;;-0.7;55.57031;95651.09;;;;
2021/04/04 02:02:01;;;;;;;7.3;3.65;;;;;;;-0.7;55.57031;95651.09;;;;
2021/04/04 02:03:04;;;;;;;7.3;3.65;;;;;;;-0.7;55.57031;95651.09;;;;
2021/04/04 02:04:06;;;;;;;7.3;3.65;;;;;;;-0.7;55.57031;95651.09;;;;
2021/04/04 02:05:08;;;;;;;7.25;3.9;;;;;;;-0.87;55.78027;95649.27;;;;
2021/04/04 02:06:10;;;;;;;7.25;3.9;;;;;;;-0.87;55.78027;95649.27;;;;
2021/04/04 02:07:14;;;;;;;7.25;3.9;;;;;;;-0.87;55.78027;95649.27;;;;
2021/04/04 02:08:15;;;;;;;7.25;3.9;;;;;;;-0.87;55.78027;95649.27;;;;
2021/04/04 02:09:17;;;;;;;7.25;3.9;;;;;;;-0.87;55.78027;95649.27;;;;
2021/04/04 02:10:18;;;;;;;7.25;3.9;;;;;;;-0.87;55.78027;95649.27;;;;
2021/04/04 02:11:23;;;;;;;7.25;3.9;;;;;;;-0.87;55.78027;95649.27;;;;
2021/04/04 02:12:28;;;;;;;7.25;3.9;;;;;;;-0.87;55.78027;95649.27;;;;
2021/04/04 02:13:29;;;;;;;7.25;3.9;;;;;;;-0.87;55.78027;95649.27;;;;
2021/04/04 02:14:30;;;;;;;7.25;3.9;;;;;;;-0.87;55.78027;95649.27;;;;
2021/04/04 02:15:34;;;;;;;7.3;4.05;;;;;;;-1.01;55.96973;95651.25;;;;
2021/04/04 02:16:36;;;;;;;7.3;4.05;;;;;;;-1.01;55.96973;95651.25;;;;
2021/04/04 02:17:40;;;;;;;7.3;4.05;;;;;;;-1.01;55.96973;95651.25;;;;
2021/04/04 02:18:42;;;;;;;7.3;4.05;;;;;;;-1.01;55.96973;95651.25;;;;
2021/04/04 02:19:43;;;;;;;7.3;4.05;;;;;;;-1.01;55.96973;95651.25;;;;
2021/04/04 02:20:44;;;;;;;7.3;4.05;;;;;;;-1.01;55.96973;95651.25;;;;
2021/04/04 02:21:47;;;;;;;7.3;4.05;;;;;;;-1.01;55.96973;95651.25;;;;
2021/04/04 02:22:51;;;;;;;7.3;4.05;;;;;;;-1.01;55.96973;95651.25;;;;
2021/04/04 02:23:53;;;;;;;7.3;4.05;;;;;;;-1.01;55.96973;95651.25;;;;
2021/04/04 02:24:53;;;;;;;7.3;4.05;;;;;;;-1.01;55.96973;95651.25;;;;
2021/04/04 02:25:54;;;;;;;7.999999;3.8;;;;;;;-1.14;56.15234;95652.98;;;;
2021/04/04 02:26:56;;;;;;;7.999999;3.8;;;;;;;-1.14;56.15234;95652.98;;;;
2021/04/04 02:27:58;;;;;;;7.999999;3.8;;;;;;;-1.14;56.15234;95652.98;;;;
2021/04/04 02:28:59;;;;;;;7.999999;3.8;;;;;;;-1.14;56.15234;95652.98;;;;
2021/04/04 02:30:01;;;;;;;7.999999;3.8;;;;;;;-1.14;56.15234;95652.98;;;;
2021/04/04 02:31:03;;;;;;;7.999999;3.8;;;;;;;-1.14;56.15234;95652.98;;;;
2021/04/04 02:32:04;;;;;;;7.999999;3.8;;;;;;;-1.14;56.15234;95652.98;;;;
2021/04/04 02:33:10;;;;;;;7.999999;3.8;;;;;;;-1.14;56.15234;95652.98;;;;
2021/04/04 02:34:20;;;;;;;7.999999;3.8;;;;;;;-1.14;56.15234;95652.98;;;;
2021/04/04 02:35:24;;;;;;;7.999999;3.8;;;;;;;-1.14;56.15234;95652.98;;;;
2021/04/04 02:36:29;;;;;;;5.85;3.6;;;;;;;-1.22;56.34082;95657.31;;;;
2021/04/04 02:37:32;;;;;;;5.85;3.6;;;;;;;-1.22;56.34082;95657.31;;;;
2021/04/04 02:38:35;;;;;;;5.85;3.6;;;;;;;-1.22;56.34082;95657.31;;;;
2021/04/04 02:39:39;;;;;;;5.85;3.6;;;;;;;-1.22;56.34082;95657.31;;;;
2021/04/04 02:40:47;;;;;;;5.85;3.6;;;;;;;-1.22;56.34082;95657.31;;;;
2021/04/04 02:41:50;;;;;;;5.85;3.6;;;;;;;-1.22;56.34082;95657.31;;;;
2021/04/04 02:42:52;;;;;;;5.85;3.6;;;;;;;-1.22;56.34082;95657.31;;;;
2021/04/04 02:43:56;;;;;;;5.85;3.6;;;;;;;-1.22;56.34082;95657.31;;;;
2021/04/04 02:44:58;;;;;;;5.85;3.6;;;;;;;-1.22;56.34082;95657.31;;;;
2021/04/04 02:46:00;;;;;;;5.85;3.6;;;;;;;-1.22;56.34082;95657.31;;;;
2021/04/04 02:47:05;;;;;;;5.85;3.6;;;;;;;-1.22;56.34082;95657.31;;;;
2021/04/04 02:48:10;;;;;;;7.05;3.5;;;;;;;-1.22;56.57129;95645.81;;;;
2021/04/04 02:49:15;;;;;;;7.05;3.5;;;;;;;-1.22;56.57129;95645.81;;;;
2021/04/04 02:50:16;;;;;;;7.05;3.5;;;;;;;-1.22;56.57129;95645.81;;;;
2021/04/04 02:51:18;;;;;;;7.05;3.5;;;;;;;-1.22;56.57129;95645.81;;;;
2021/04/04 02:52:23;;;;;;;7.05;3.5;;;;;;;-1.22;56.57129;95645.81;;;;
2021/04/04 02:53:26;;;;;;;7.05;3.5;;;;;;;-1.22;56.57129;95645.81;;;;
2021/04/04 02:54:29;;;;;;;7.05;3.5;;;;;;;-1.22;56.57129;95645.81;;;;
2021/04/04 02:55:32;;;;;;;7.05;3.5;;;;;;;-1.22;56.57129;95645.81;;;;
2021/04/04 02:56:36;;;;;;;7.05;3.5;;;;;;;-1.22;56.57129;95645.81;;;;
2021/04/04 02:57:40;;;;;;;7.05;3.5;;;;;;;-1.22;56.57129;95645.81;;;;
2021/04/04 02:58:40;;;;;;;6.35;3.7;;;;;;;-1.22;56.43359;95645.9;;;;
2021/04/04 02:59:43;;;;;;;6.35;3.7;;;;;;;-1.22;56.43359;95645.9;;;;
2021/04/04 03:00:47;;;;;;;6.35;3.7;;;;;;;-1.22;56.43359;95645.9;;;;
2021/04/04 03:01:49;;;;;;;6.35;3.7;;;;;;;-1.22;56.43359;95645.9;;;;
2021/04/04 03:02:50;;;;;;;6.35;3.7;;;;;;;-1.22;56.43359;95645.9;;;;
2021/04/04 03:03:54;;;;;;;6.35;3.7;;;;;;;-1.22;56.43359;95645.9;;;;
2021/04/04 03:04:54;;;;;;;6.35;3.7;;;;;;;-1.22;56.43359;95645.9;;;;
2021/04/04 03:05:56;;;;;;;6.35;3.7;;;;;;;-1.22;56.43359;95645.9;;;;
2021/04/04 03:07:02;;;;;;;6.35;3.7;;;;;;;-1.22;56.43359;95645.9;;;;
2021/04/04 03:08:05;;;;;;;6.35;3.7;;;;;;;-1.22;56.43359;95645.9;;;;
2021/04/04 03:09:08;;;;;;;5.1;3.5;;;;;;;-1.23;56.64258;95640.67;;;;
2021/04/04 03:10:10;;;;;;;5.1;3.5;;;;;;;-1.23;56.64258;95640.67;;;;
2021/04/04 03:11:12;;;;;;;5.1;3.5;;;;;;;-1.23;56.64258;95640.67;;;;
2021/04/04 03:12:13;;;;;;;5.1;3.5;;;;;;;-1.23;56.64258;95640.67;;;;
2021/04/04 03:13:15;;;;;;;5.1;3.5;;;;;;;-1.23;56.64258;95640.67;;;;
2021/04/04 03:14:19;;;;;;;5.1;3.5;;;;;;;-1.23;56.64258;95640.67;;;;
2021/04/04 03:15:23;;;;;;;5.1;3.5;;;;;;;-1.23;56.64258;95640.67;;;;
2021/04/04 03:16:26;;;;;;;5.1;3.5;;;;;;;-1.23;56.64258;95640.67;;;;
2021/04/04 03:17:29;;;;;;;5.1;3.5;;;;;;;-1.23;56.64258;95640.67;;;;
2021/04/04 03:18:30;;;;;;;5.1;3.5;;;;;;;-1.23;56.64258;95640.67;;;;
2021/04/04 03:19:32;;;;;;;5.15;3.35;;;;;;;-1.3;56.74805;95644.93;;;;
2021/04/04 03:20:34;;;;;;;5.15;3.35;;;;;;;-1.3;56.74805;95644.93;;;;
2021/04/04 03:21:34;;;;;;;5.15;3.35;;;;;;;-1.3;56.74805;95644.93;;;;
2021/04/04 03:22:36;;;;;;;5.15;3.35;;;;;;;-1.3;56.74805;95644.93;;;;
2021/04/04 03:23:40;;;;;;;5.15;3.35;;;;;;;-1.3;56.74805;95644.93;;;;
2021/04/04 03:24:42;;;;;;;5.15;3.35;;;;;;;-1.3;56.74805;95644.93;;;;
2021/04/04 03:25:45;;;;;;;5.15;3.35;;;;;;;-1.3;56.74805;95644.93;;;;
2021/04/04 03:26:46;;;;;;;5.15;3.35;;;;;;;-1.3;56.74805;95644.93;;;;
2021/04/04 03:27:48;;;;;;;5.15;3.35;;;;;;;-1.3;56.74805;95644.93;;;;
2021/04/04 03:28:49;;;;;;;5.15;3.35;;;;;;;-1.3;56.74805;95644.93;;;;
2021/04/04 03:29:51;;;;;;;5.15;3.35;;;;;;;-1.3;56.74805;95644.93;;;;
2021/04/04 03:30:52;;;;;;;5.55;3.9;;;;;;;-1.38;56.96875;95633.78;;;;
2021/04/04 03:31:52;;;;;;;5.55;3.9;;;;;;;-1.38;56.96875;95633.78;;;;
2021/04/04 03:32:54;;;;;;;5.55;3.9;;;;;;;-1.38;56.96875;95633.78;;;;
2021/04/04 03:33:55;;;;;;;5.55;3.9;;;;;;;-1.38;56.96875;95633.78;;;;
2021/04/04 03:34:58;;;;;;;5.55;3.9;;;;;;;-1.38;56.96875;95633.78;;;;
2021/04/04 03:35:59;;;;;;;5.55;3.9;;;;;;;-1.38;56.96875;95633.78;;;;
2021/04/04 03:37:00;;;;;;;5.55;3.9;;;;;;;-1.38;56.96875;95633.78;;;;
2021/04/04 03:38:01;;;;;;;5.55;3.9;;;;;;;-1.38;56.96875;95633.78;;;;
2021/04/04 03:39:06;;;;;;;5.55;3.9;;;;;;;-1.38;56.96875;95633.78;;;;
2021/04/04 03:40:07;;;;;;;5.55;3.9;;;;;;;-1.38;56.96875;95633.78;;;;
2021/04/04 03:41:09;;;;;;;8.049999;4.15;;;;;;;-1.41;57.04688;95648.74;;;;
2021/04/04 03:42:11;;;;;;;8.049999;4.15;;;;;;;-1.41;57.04688;95648.74;;;;
2021/04/04 03:43:13;;;;;;;8.049999;4.15;;;;;;;-1.41;57.04688;95648.74;;;;
2021/04/04 03:44:18;;;;;;;8.049999;4.15;;;;;;;-1.41;57.04688;95648.74;;;;
2021/04/04 03:45:21;;;;;;;8.049999;4.15;;;;;;;-1.41;57.04688;95648.74;;;;
2021/04/04 03:46:22;;;;;;;8.049999;4.15;;;;;;;-1.41;57.04688;95648.74;;;;
2021/04/04 03:47:25;;;;;;;8.049999;4.15;;;;;;;-1.41;57.04688;95648.74;;;;
2021/04/04 03:48:27;;;;;;;8.049999;4.15;;;;;;;-1.41;57.04688;95648.74;;;;
2021/04/04 03:49:30;;;;;;;8.049999;4.15;;;;;;;-1.41;57.04688;95648.74;;;;
2021/04/04 03:50:32;;;;;;;8.049999;4.15;;;;;;;-1.41;57.04688;95648.74;;;;
2021/04/04 03:51:35;;;;;;;5.649999;4.05;;;;;;;-1.35;57.12891;95639.67;;;;
2021/04/04 03:52:35;;;;;;;5.649999;4.05;;;;;;;-1.35;57.12891;95639.67;;;;
2021/04/04 03:53:37;;;;;;;5.649999;4.05;;;;;;;-1.35;57.12891;95639.67;;;;
2021/04/04 03:54:40;;;;;;;5.649999;4.05;;;;;;;-1.35;57.12891;95639.67;;;;
2021/04/04 03:55:42;;;;;;;5.649999;4.05;;;;;;;-1.35;57.12891;95639.67;;;;
2021/04/04 03:56:44;;;;;;;5.649999;4.05;;;;;;;-1.35;57.12891;95639.67;;;;
2021/04/04 03:57:48;;;;;;;5.649999;4.05;;;;;;;-1.35;57.12891;95639.67;;;;
2021/04/04 03:58:50;;;;;;;5.649999;4.05;;;;;;;-1.35;57.12891;95639.67;;;;
2021/04/04 03:59:52;;;;;;;5.649999;4.05;;;;;;;-1.35;57.12891;95639.67;;;;
2021/04/04 04:00:53;;;;;;;5.649999;4.05;;;;;;;-1.35;57.12891;95639.67;;;;
2021/04/04 04:01:55;;;;;;;5.649999;4.05;;;;;;;-1.35;57.12891;95639.67;;;;
2021/04/04 04:02:57;;;;;;;7.9;4.2;;;;;;;-1.23;57.87598;95632.73;;;;
2021/04/04 04:03:58;;;;;;;7.9;4.2;;;;;;;-1.23;57.87598;95632.73;;;;
2021/04/04 04:05:00;;;;;;;7.9;4.2;;;;;;;-1.23;57.87598;95632.73;;;;
2021/04/04 04:06:02;;;;;;;7.9;4.2;;;;;;;-1.23;57.87598;95632.73;;;;
2021/04/04 04:07:04;;;;;;;7.9;4.2;;;;;;;-1.23;57.87598;95632.73;;;;
2021/04/04 04:08:06;;;;;;;7.9;4.2;;;;;;;-1.23;57.87598;95632.73;;;;
2021/04/04 04:09:07;;;;;;;7.9;4.2;;;;;;;-1.23;57.87598;95632.73;;;;
2021/04/04 04:10:11;;;;;;;7.9;4.2;;;;;;;-1.23;57.87598;95632.73;;;;
2021/04/04 04:11:16;;;;;;;7.9;4.2;;;;;;;-1.23;57.87598;95632.73;;;;
2021/04/04 04:12:17;;;;;;;7.9;4.2;;;;;;;-1.23;57.87598;95632.73;;;;
2021/04/04 04:13:18;;;;;;;8.65;4.45;;;;;;;-1.19;57.52734;95632.34;;;;
2021/04/04 04:14:19;;;;;;;8.65;4.45;;;;;;;-1.19;57.52734;95632.34;;;;
2021/04/04 04:15:22;;;;;;;8.65;4.45;;;;;;;-1.19;57.52734;95632.34;;;;
2021/04/04 04:16:23;;;;;;;8.65;4.45;;;;;;;-1.19;57.52734;95632.34;;;;
2021/04/04 04:17:25;;;;;;;8.65;4.45;;;;;;;-1.19;57.52734;95632.34;;;;
2021/04/04 04:18:26;;;;;;;8.65;4.45;;;;;;;-1.19;57.52734;95632.34;;;;
2021/04/04 04:19:28;;;;;;;8.65;4.45;;;;;;;-1.19;57.52734;95632.34;;;;
2021/04/04 04:20:29;;;;;;;8.65;4.45;;;;;;;-1.19;57.52734;95632.34;;;;
2021/04/04 04:21:30;;;;;;;8.65;4.45;;;;;;;-1.19;57.52734;95632.34;;;;
2021/04/04 04:22:32;;;;;;;8.65;4.45;;;;;;;-1.19;57.52734;95632.34;;;;
2021/04/04 04:23:33;;;;;;;6.3;4;;;;;;;-1.31;57.67773;95643.25;;;;
2021/04/04 04:24:36;;;;;;;6.3;4;;;;;;;-1.31;57.67773;95643.25;;;;
2021/04/04 04:25:37;;;;;;;6.3;4;;;;;;;-1.31;57.67773;95643.25;;;;
2021/04/04 04:26:38;;;;;;;6.3;4;;;;;;;-1.31;57.67773;95643.25;;;;
2021/04/04 04:27:42;;;;;;;6.3;4;;;;;;;-1.31;57.67773;95643.25;;;;
2021/04/04 04:28:43;;;;;;;6.3;4;;;;;;;-1.31;57.67773;95643.25;;;;
2021/04/04 04:29:45;;;;;;;6.3;4;;;;;;;-1.31;57.67773;95643.25;;;;
2021/04/04 04:30:47;;;;;;;6.3;4;;;;;;;-1.31;57.67773;95643.25;;;;
2021/04/04 04:31:49;;;;;;;6.3;4;;;;;;;-1.31;57.67773;95643.25;;;;
2021/04/04 04:32:54;;;;;;;6.3;4;;;;;;;-1.31;57.67773;95643.25;;;;
2021/04/04 04:34:00;;;;;;;9.6;4.5;;;;;;;-1.43;57.81836;95632.58;;;;
2021/04/04 04:35:02;;;;;;;9.6;4.5;;;;;;;-1.43;57.81836;95632.58;;;;
2021/04/04 04:36:04;;;;;;;9.6;4.5;;;;;;;-1.43;57.81836;95632.58;;;;
2021/04/04 04:37:05;;;;;;;9.6;4.5;;;;;;;-1.43;57.81836;95632.58;;;;
2021/04/04 04:38:07;;;;;;;9.6;4.5;;;;;;;-1.43;57.81836;95632.58;;;;
2021/04/04 04:39:09;;;;;;;9.6;4.5;;;;;;;-1.43;57.81836;95632.58;;;;
2021/04/04 04:40:11;;;;;;;9.6;4.5;;;;;;;-1.43;57.81836;95632.58;;;;
2021/04/04 04:41:12;;;;;;;9.6;4.5;;;;;;;-1.43;57.81836;95632.58;;;;
2021/04/04 04:42:14;;;;;;;9.6;4.5;;;;;;;-1.43;57.81836;95632.58;;;;
2021/04/04 04:43:17;;;;;;;9.6;4.5;;;;;;;-1.43;57.81836;95632.58;;;;
2021/04/04 04:44:18;;;;;;;9.6;4.5;;;;;;;-1.43;57.81836;95632.58;;;;
2021/04/04 04:45:23;;;;;;;8.35;4.500001;;;;;;;-1.49;57.9043;95634.03;;;;
2021/04/04 04:46:27;;;;;;;8.35;4.500001;;;;;;;-1.49;57.9043;95634.03;;;;
2021/04/04 04:47:29;;;;;;;8.35;4.500001;;;;;;;-1.49;57.9043;95634.03;;;;
2021/04/04 04:48:31;;;;;;;8.35;4.500001;;;;;;;-1.49;57.9043;95634.03;;;;
2021/04/04 04:49:32;;;;;;;8.35;4.500001;;;;;;;-1.49;57.9043;95634.03;;;;
2021/04/04 04:50:32;;;;;;;8.35;4.500001;;;;;;;-1.49;57.9043;95634.03;;;;
2021/04/04 04:51:34;;;;;;;8.35;4.500001;;;;;;;-1.49;57.9043;95634.03;;;;
2021/04/04 04:52:35;;;;;;;8.35;4.500001;;;;;;;-1.49;57.9043;95634.03;;;;
2021/04/04 04:53:36;;;;;;;8.35;4.500001;;;;;;;-1.49;57.9043;95634.03;;;;
2021/04/04 04:54:37;;;;;;;8.35;4.500001;;;;;;;-1.49;57.9043;95634.03;;;;
2021/04/04 04:55:41;;;;;;;8.65;4.5;;;;;;;-1.48;58.22949;95633.12;;;;
2021/04/04 04:56:43;;;;;;;8.65;4.5;;;;;;;-1.48;58.22949;95633.12;;;;
2021/04/04 04:57:45;;;;;;;8.65;4.5;;;;;;;-1.48;58.22949;95633.12;;;;
2021/04/04 04:58:47;;;;;;;8.65;4.5;;;;;;;-1.48;58.22949;95633.12;;;;
2021/04/04 04:59:48;;;;;;;8.65;4.5;;;;;;;-1.48;58.22949;95633.12;;;;
2021/04/04 05:00:49;;;;;;;8.65;4.5;;;;;;;-1.48;58.22949;95633.12;;;;
2021/04/04 05:01:51;;;;;;;8.65;4.5;;;;;;;-1.48;58.22949;95633.12;;;;
2021/04/04 05:02:53;;;;;;;8.65;4.5;;;;;;;-1.48;58.22949;95633.12;;;;
2021/04/04 05:03:53;;;;;;;8.65;4.5;;;;;;;-1.48;58.22949;95633.12;;;;
2021/04/04 05:04:54;;;;;;;8.65;4.5;;;;;;;-1.48;58.22949;95633.12;;;;
2021/04/04 05:05:54;;;;;;;8.65;4.5;;;;;;;-1.48;58.22949;95633.12;;;;
2021/04/04 05:07:01;;;;;;;6.950001;4.1;;;;;;;-1.51;58.33008;95626.31;;;;
2021/04/04 05:08:03;;;;;;;6.950001;4.1;;;;;;;-1.51;58.33008;95626.31;;;;
2021/04/04 05:09:05;;;;;;;6.950001;4.1;;;;;;;-1.51;58.33008;95626.31;;;;
2021/04/04 05:10:08;;;;;;;6.950001;4.1;;;;;;;-1.51;58.33008;95626.31;;;;
2021/04/04 05:11:11;;;;;;;6.950001;4.1;;;;;;;-1.51;58.33008;95626.31;;;;
2021/04/04 05:12:14;;;;;;;6.950001;4.1;;;;;;;-1.51;58.33008;95626.31;;;;
2021/04/04 05:13:19;;;;;;;6.950001;4.1;;;;;;;-1.51;58.33008;95626.31;;;;
2021/04/04 05:14:21;;;;;;;6.950001;4.1;;;;;;;-1.51;58.33008;95626.31;;;;
2021/04/04 05:15:22;;;;;;;6.950001;4.1;;;;;;;-1.51;58.33008;95626.31;;;;
2021/04/04 05:16:25;;;;;;;6.950001;4.1;;;;;;;-1.51;58.33008;95626.31;;;;
2021/04/04 05:17:30;;;;;;;9.049999;4.85;;;;;;;-1.46;58.41016;95630.67;;;;
2021/04/04 05:18:32;;;;;;;9.049999;4.85;;;;;;;-1.46;58.41016;95630.67;;;;
2021/04/04 05:19:32;;;;;;;9.049999;4.85;;;;;;;-1.46;58.41016;95630.67;;;;
2021/04/04 05:20:33;;;;;;;9.049999;4.85;;;;;;;-1.46;58.41016;95630.67;;;;
2021/04/04 05:21:37;;;;;;;9.049999;4.85;;;;;;;-1.46;58.41016;95630.67;;;;
2021/04/04 05:22:39;;;;;;;9.049999;4.85;;;;;;;-1.46;58.41016;95630.67;;;;
2021/04/04 05:23:40;;;;;;;9.049999;4.85;;;;;;;-1.46;58.41016;95630.67;;;;
2021/04/04 05:24:41;;;;;;;9.049999;4.85;;;;;;;-1.46;58.41016;95630.67;;;;
2021/04/04 05:25:42;;;;;;;9.049999;4.85;;;;;;;-1.46;58.41016;95630.67;;;;
2021/04/04 05:26:44;;;;;;;9.049999;4.85;;;;;;;-1.46;58.41016;95630.67;;;;
2021/04/04 05:27:46;;;;;;;8.25;4.45;;;;;;;-1.39;58.35645;95629.06;;;;
2021/04/04 05:28:47;;;;;;;8.25;4.45;;;;;;;-1.39;58.35645;95629.06;;;;
2021/04/04 05:29:47;;;;;;;8.25;4.45;;;;;;;-1.39;58.35645;95629.06;;;;
2021/04/04 05:30:48;;;;;;;8.25;4.45;;;;;;;-1.39;58.35645;95629.06;;;;
2021/04/04 05:31:49;;;;;;;8.25;4.45;;;;;;;-1.39;58.35645;95629.06;;;;
2021/04/04 05:32:51;;;;;;;8.25;4.45;;;;;;;-1.39;58.35645;95629.06;;;;
2021/04/04 05:33:52;;;;;;;8.25;4.45;;;;;;;-1.39;58.35645;95629.06;;;;
2021/04/04 05:34:53;;;;;;;8.25;4.45;;;;;;;-1.39;58.35645;95629.06;;;;
2021/04/04 05:35:54;;;;;;;8.25;4.45;;;;;;;-1.39;58.35645;95629.06;;;;
2021/04/04 05:36:54;;;;;;;8.25;4.45;;;;;;;-1.39;58.35645;95629.06;;;;
2021/04/04 05:37:57;;;;;;;8.25;4.45;;;;;;;-1.39;58.35645;95629.06;;;;
2021/04/04 05:38:57;;;;;;;10.1;4.650001;;;;;;;-1.2;58.53906;95631.98;;;;
2021/04/04 05:39:58;;;;;;;10.1;4.650001;;;;;;;-1.2;58.53906;95631.98;;;;
2021/04/04 05:40:59;;;;;;;10.1;4.650001;;;;;;;-1.2;58.53906;95631.98;;;;
2021/04/04 05:42:02;;;;;;;10.1;4.650001;;;;;;;-1.2;58.53906;95631.98;;;;
2021/04/04 05:43:05;;;;;;;10.1;4.650001;;;;;;;-1.2;58.53906;95631.98;;;;
2021/04/04 05:44:11;;;;;;;10.1;4.650001;;;;;;;-1.2;58.53906;95631.98;;;;
2021/04/04 05:45:17;;;;;;;10.1;4.650001;;;;;;;-1.2;58.53906;95631.98;;;;
2021/04/04 05:46:24;;;;;;;10.1;4.650001;;;;;;;-1.2;58.53906;95631.98;;;;
2021/04/04 05:47:32;;;;;;;10.1;4.650001;;;;;;;-1.2;58.53906;95631.98;;;;
2021/04/04 05:48:39;;;;;;;10.1;4.650001;;;;;;;-1.2;58.53906;95631.98;;;;
2021/04/04 05:49:50;;;;;;;9.25;4.700001;;;;;;;-0.86;58.80762;95635.01;;;;